KBNA/BNA METAR and TAF weather

Enter ICAO airport designator
Station Type Date Time Source
KBNA METAR 2019/08/21 01:53 UTC NOAA

KBNA 210153Z 29003KT 10SM BKN180 OVC250 24/21 A3008 RMK AO2 SLP177 T02440206


Station Type Date Time Source
KBNA Decoded METAR 2019/08/21 01:53 UTC NOAA

Station name not available
Aug 20, 2019 - 09:53 PM EDT / 2019.08.21 0153 UTC
Wind: from the WNW (290 degrees) at 3 MPH (3 KT):0
Visibility: 10 mile(s):0
Sky conditions: overcast
Temperature: 75.9 F (24.4 C)
Dew Point: 69.1 F (20.6 C)
Relative Humidity: 79%
Pressure (altimeter): 30.08 in. Hg (1018 hPa)
ob: KBNA 210153Z 29003KT 10SM BKN180 OVC250 24/21 A3008 RMK AO2 SLP177 T02440206
cycle: 2

Station Type Date Time Source
KBNA TAF 2019/08/20 20:39 UTC NOAA

TAF
AMD KBNA 201937Z 2020/2118 24005KT P6SM VCTS SCT045CB
FM210000 31004KT 6SM -SHRA VCTS BKN050CB
FM210300 VRB03KT P6SM SCT120 BKN250

Example: see airport list